Time;durP1;ratioP1;P1;durP2;ratioP2;P2;SDS_P1;SDS_P2;PMS_P1;PMS_P2;Temp;Humidity;BMP_temperature;BMP_pressure;BME280_temperature;BME280_humidity;BME280_pressure;Samples;Min_cycle;Max_cycle;Signal;HPM_P1;HPM_P2
2023/08/08 00:01:43;;;;;;;0.40;0.40;;;17.60;63.80;16.60;96647.00;;;;5046960;28;20208;-81
2023/08/08 00:04:10;;;;;;;0.30;0.30;;;17.60;63.80;16.60;96651.00;;;;5055244;28;20228;-81
2023/08/08 00:06:39;;;;;;;0.53;0.53;;;17.60;63.80;16.60;96652.00;;;;5059582;28;20201;-81
2023/08/08 00:09:07;;;;;;;0.30;0.30;;;17.50;63.90;16.50;96644.00;;;;5061049;28;20212;-81
2023/08/08 00:11:34;;;;;;;0.30;0.30;;;17.50;64.00;16.50;96646.00;;;;5060692;28;20204;-81
2023/08/08 00:14:01;;;;;;;0.50;0.50;;;17.50;64.20;16.50;96640.00;;;;5043492;28;20229;-81
2023/08/08 00:16:29;;;;;;;0.40;0.40;;;17.40;64.20;16.50;96640.00;;;;5053717;28;20283;-82
2023/08/08 00:18:56;;;;;;;1.03;0.37;;;17.40;64.30;16.50;96647.00;;;;5038779;28;20210;-81
2023/08/08 00:21:24;;;;;;;0.50;0.50;;;17.40;64.40;16.40;96647.00;;;;5054809;28;20283;-81
2023/08/08 00:23:52;;;;;;;0.63;0.40;;;17.40;64.50;16.40;96647.00;;;;5054792;28;20304;-82
2023/08/08 00:26:20;;;;;;;0.40;0.33;;;17.40;64.60;16.40;96642.00;;;;5055125;28;20224;-82
2023/08/08 00:28:47;;;;;;;1.27;0.40;;;17.40;64.70;16.40;96643.00;;;;5047928;28;20199;-82
2023/08/08 00:31:16;;;;;;;0.60;0.40;;;17.40;64.70;16.40;96643.00;;;;5053551;28;20288;-82
2023/08/08 00:33:44;;;;;;;0.30;0.30;;;17.30;64.60;16.40;96649.00;;;;5056148;28;20239;-82
2023/08/08 00:36:11;;;;;;;0.37;0.37;;;17.30;64.70;16.30;96645.00;;;;5052079;28;20203;-82
2023/08/08 00:38:39;;;;;;;0.40;0.40;;;17.30;64.70;16.30;96644.00;;;;5053417;28;20221;-81
2023/08/08 00:41:07;;;;;;;0.37;0.37;;;17.30;64.90;16.30;96644.00;;;;5044821;28;20201;-82
2023/08/08 00:43:35;;;;;;;0.50;0.50;;;17.30;65.00;16.20;96639.00;;;;5047452;28;20563;-81
2023/08/08 00:46:02;;;;;;;0.30;0.30;;;17.30;65.00;16.20;96635.00;;;;5042793;28;20205;-81
2023/08/08 00:48:33;;;;;;;0.87;0.40;;;17.20;64.90;16.20;96632.00;;;;5054775;28;20211;-82
2023/08/08 00:51:00;;;;;;;0.50;0.50;;;17.20;65.00;16.10;96635.00;;;;5039229;28;20239;-81
2023/08/08 00:53:31;;;;;;;0.93;0.20;;;17.20;65.00;16.10;96631.00;;;;5038364;28;20200;-81
2023/08/08 00:56:00;;;;;;;0.50;0.50;;;17.10;65.00;16.00;96634.00;;;;5055235;28;20271;-82
2023/08/08 00:58:29;;;;;;;0.47;0.47;;;17.10;65.00;16.00;96623.00;;;;5056085;28;20209;-82
2023/08/08 01:00:59;;;;;;;0.60;0.60;;;17.10;65.00;16.00;96628.00;;;;5054514;28;20668;-81
2023/08/08 01:03:27;;;;;;;1.23;0.30;;;17.00;64.90;15.90;96634.00;;;;5055987;28;20200;-81
2023/08/08 01:06:04;;;;;;;0.40;0.40;;;17.00;64.90;15.90;96626.00;;;;5056119;28;20595;-81
2023/08/08 01:08:40;;;;;;;0.30;0.30;;;17.00;65.10;15.90;96624.00;;;;5053729;28;20676;-81
2023/08/08 01:11:08;;;;;;;0.30;0.30;;;16.90;65.20;15.80;96618.00;;;;5047904;28;20291;-81
2023/08/08 01:13:39;;;;;;;0.40;0.40;;;16.90;65.30;15.80;96618.00;;;;5043071;28;20291;-81
2023/08/08 01:16:09;;;;;;;0.40;0.40;;;16.90;65.50;15.80;96615.00;;;;5040241;28;20197;-81
2023/08/08 01:18:38;;;;;;;0.33;0.33;;;16.90;65.50;15.80;96613.00;;;;5055499;28;20292;-81
2023/08/08 01:21:06;;;;;;;0.40;0.40;;;16.90;65.70;15.80;96608.00;;;;5042261;28;20201;-81
2023/08/08 01:23:43;;;;;;;0.40;0.40;;;16.80;65.80;15.80;96612.00;;;;5054329;28;20208;-81
2023/08/08 01:26:13;;;;;;;0.70;0.70;;;16.80;66.00;15.80;96614.00;;;;5047741;28;20295;-81
2023/08/08 01:28:40;;;;;;;0.50;0.50;;;16.80;65.90;15.80;96608.00;;;;5047811;28;20275;-81
2023/08/08 01:31:08;;;;;;;1.47;0.70;;;16.80;66.00;15.80;96607.00;;;;5047902;28;20203;-81
2023/08/08 01:33:36;;;;;;;0.80;0.50;;;16.80;66.10;15.80;96607.00;;;;5055493;28;20583;-81
2023/08/08 01:36:14;;;;;;;0.60;0.60;;;16.80;66.20;15.80;96604.00;;;;5055906;28;20204;-81
2023/08/08 01:38:45;;;;;;;4.80;0.60;;;16.80;66.40;15.80;96604.00;;;;5038345;28;20246;-81
2023/08/08 01:41:16;;;;;;;0.60;0.40;;;16.80;66.30;15.80;96600.00;;;;5047011;28;20206;-81
2023/08/08 01:43:44;;;;;;;0.87;0.40;;;16.80;67.10;15.90;96614.00;;;;5047767;28;20197;-81
2023/08/08 01:46:12;;;;;;;0.43;0.43;;;16.80;66.20;15.90;96609.00;;;;5026969;28;20197;-81
2023/08/08 01:48:39;;;;;;;0.50;0.50;;;16.80;66.10;15.90;96603.00;;;;5026462;28;20212;-80
2023/08/08 01:51:07;;;;;;;0.30;0.30;;;16.80;66.20;15.90;96604.00;;;;5043055;28;20197;-80
2023/08/08 01:53:34;;;;;;;0.57;0.50;;;16.90;66.40;15.90;96592.00;;;;5038065;28;20204;-81
2023/08/08 01:56:02;;;;;;;1.17;0.70;;;16.90;66.40;15.90;96596.00;;;;5041319;28;20204;-81
2023/08/08 01:58:31;;;;;;;0.30;0.30;;;16.90;66.50;15.90;96595.00;;;;5047601;28;20247;-80
2023/08/08 02:00:58;;;;;;;0.77;0.53;;;16.90;66.60;16.00;96592.00;;;;5037602;28;20680;-81
2023/08/08 02:03:26;;;;;;;0.60;0.57;;;16.90;66.60;16.00;96591.00;;;;5047288;28;20197;-81
2023/08/08 02:05:53;;;;;;;0.60;0.53;;;16.90;66.60;16.00;96586.00;;;;5056446;28;20220;-81
2023/08/08 02:08:20;;;;;;;0.40;0.40;;;16.90;66.40;16.00;96591.00;;;;5057395;28;20215;-81
2023/08/08 02:10:47;;;;;;;0.40;0.40;;;16.90;66.50;16.00;96585.00;;;;5056052;28;20217;-81
2023/08/08 02:13:14;;;;;;;0.30;0.30;;;16.90;66.50;16.00;96586.00;;;;5055976;28;20196;-81
2023/08/08 02:15:44;;;;;;;0.50;0.50;;;16.90;66.40;16.00;96584.00;;;;5053391;28;20228;-81
2023/08/08 02:18:11;;;;;;;0.40;0.40;;;17.00;66.50;16.00;96580.00;;;;5056513;28;20569;-81
2023/08/08 02:20:38;;;;;;;0.40;0.40;;;17.00;66.60;16.00;96579.00;;;;5057422;28;20284;-81
2023/08/08 02:23:05;;;;;;;0.30;0.30;;;17.00;66.60;16.00;96583.00;;;;5056443;28;20201;-81
2023/08/08 02:25:33;;;;;;;0.97;0.40;;;17.00;66.60;16.00;96585.00;;;;5055132;28;20235;-81
2023/08/08 02:28:00;;;;;;;0.47;0.47;;;17.00;66.60;16.00;96585.00;;;;5052301;28;20197;-81
2023/08/08 02:30:27;;;;;;;0.40;0.40;;;16.90;66.40;16.00;96585.00;;;;5062224;28;20224;-81
2023/08/08 02:32:56;;;;;;;0.30;0.30;;;17.00;66.40;16.00;96581.00;;;;5046165;28;20207;-81
2023/08/08 02:35:23;;;;;;;0.40;0.40;;;17.00;66.50;16.00;96586.00;;;;5050999;28;20227;-82
2023/08/08 02:37:51;;;;;;;0.37;0.37;;;16.90;67.20;15.90;96578.00;;;;5054610;28;20196;-82
2023/08/08 02:40:18;;;;;;;0.50;0.50;;;16.90;66.30;15.90;96585.00;;;;5053852;28;20200;-81
2023/08/08 02:42:46;;;;;;;0.40;0.40;;;16.90;66.30;15.90;96585.00;;;;5047277;28;20192;-81
2023/08/08 02:45:13;;;;;;;1.03;0.40;;;16.90;66.60;15.90;96584.00;;;;5054839;28;20685;-81
2023/08/08 02:47:41;;;;;;;0.33;0.33;;;16.90;66.40;15.90;96580.00;;;;5052825;28;20311;-82
2023/08/08 02:50:10;;;;;;;0.80;0.40;;;16.90;66.30;15.90;96585.00;;;;5042936;28;20201;-81
2023/08/08 02:52:37;;;;;;;0.40;0.40;;;16.90;66.30;15.80;96587.00;;;;5036440;28;20197;-81
2023/08/08 02:55:06;;;;;;;0.77;0.70;;;16.90;66.30;15.80;96585.00;;;;5053794;28;20216;-82
2023/08/08 02:57:34;;;;;;;0.57;0.50;;;16.80;66.20;15.80;96586.00;;;;5043931;28;21364;-81
2023/08/08 03:00:01;;;;;;;0.40;0.40;;;16.80;66.10;15.80;96583.00;;;;5047814;28;20310;-82
2023/08/08 03:02:28;;;;;;;1.20;0.87;;;16.80;66.20;15.80;96590.00;;;;5053553;28;20192;-81
2023/08/08 03:04:56;;;;;;;0.50;0.40;;;16.80;66.30;15.80;96592.00;;;;5052125;28;20224;-81
2023/08/08 03:07:25;;;;;;;0.30;0.30;;;16.80;66.30;15.80;96599.00;;;;5051684;28;20200;-81
2023/08/08 03:09:52;;;;;;;0.67;0.50;;;16.80;66.40;15.70;96591.00;;;;5041731;28;20194;-81
2023/08/08 03:12:19;;;;;;;0.40;0.30;;;16.80;66.40;15.70;96588.00;;;;5051098;28;20609;-81
2023/08/08 03:14:47;;;;;;;0.73;0.50;;;16.80;66.40;15.70;96595.00;;;;5052508;28;20220;-81
2023/08/08 03:17:15;;;;;;;0.40;0.40;;;16.70;66.40;15.70;96594.00;;;;5052752;28;20284;-82
2023/08/08 03:19:42;;;;;;;0.47;0.40;;;16.70;66.40;15.70;96586.00;;;;5043278;28;20279;-82
2023/08/08 03:22:09;;;;;;;0.87;0.50;;;16.70;66.40;15.70;96585.00;;;;5052795;28;20197;-81
2023/08/08 03:24:38;;;;;;;0.67;0.50;;;16.70;66.50;15.70;96586.00;;;;5044734;28;20582;-81
2023/08/08 03:27:09;;;;;;;0.50;0.30;;;16.70;66.70;15.70;96587.00;;;;5032539;28;20202;-81
2023/08/08 03:29:36;;;;;;;0.30;0.30;;;16.70;66.70;15.70;96585.00;;;;5040589;28;20292;-81
2023/08/08 03:32:04;;;;;;;0.40;0.40;;;16.70;66.70;15.70;96577.00;;;;5041209;28;20195;-81
2023/08/08 03:34:31;;;;;;;0.60;0.40;;;16.70;66.80;15.70;96573.00;;;;5051303;28;20208;-82
2023/08/08 03:36:58;;;;;;;0.40;0.33;;;16.70;66.90;15.70;96581.00;;;;5041321;28;20584;-81
2023/08/08 03:39:26;;;;;;;0.50;0.40;;;16.70;67.00;15.70;96571.00;;;;5038130;28;20651;-81
2023/08/08 03:41:55;;;;;;;1.07;0.47;;;16.70;67.00;15.70;96576.00;;;;5053427;28;20197;-81
2023/08/08 03:44:22;;;;;;;0.60;0.40;;;16.70;67.00;15.70;96578.00;;;;5052167;28;20300;-81
2023/08/08 03:46:50;;;;;;;0.60;0.60;;;16.70;66.90;15.70;96576.00;;;;5045218;28;20200;-81
2023/08/08 03:49:18;;;;;;;1.00;0.37;;;16.70;67.60;15.70;96580.00;;;;5052285;28;20193;-81
2023/08/08 03:51:47;;;;;;;1.03;0.40;;;16.70;66.90;15.70;96575.00;;;;5029414;28;20200;-82
2023/08/08 03:54:15;;;;;;;0.57;0.50;;;16.70;67.80;15.70;96582.00;;;;5033075;28;20221;-81
2023/08/08 03:56:43;;;;;;;0.40;0.40;;;16.70;67.20;15.70;96580.00;;;;5051329;28;20197;-82
2023/08/08 03:59:12;;;;;;;0.50;0.50;;;16.70;67.20;15.70;96578.00;;;;5051414;28;20201;-81
2023/08/08 04:01:39;;;;;;;0.50;0.50;;;16.70;67.10;15.70;96587.00;;;;5050903;28;20260;-81
2023/08/08 04:04:07;;;;;;;0.37;0.37;;;16.70;67.20;15.70;96577.00;;;;5051227;28;20216;-81
2023/08/08 04:06:34;;;;;;;0.60;0.60;;;16.70;67.20;15.70;96587.00;;;;5053926;28;20248;-82
2023/08/08 04:09:01;;;;;;;0.30;0.30;;;16.70;67.00;15.70;96588.00;;;;5057197;28;20296;-81
2023/08/08 04:11:29;;;;;;;0.57;0.57;;;16.70;67.00;15.70;96582.00;;;;5056728;28;20207;-81
2023/08/08 04:13:56;;;;;;;0.40;0.37;;;16.70;67.20;15.80;96589.00;;;;5056298;28;20227;-81
2023/08/08 04:16:25;;;;;;;1.00;0.50;;;16.70;67.40;15.80;96586.00;;;;5054615;28;20239;-81
2023/08/08 04:18:52;;;;;;;0.70;0.40;;;16.80;67.30;15.80;96587.00;;;;5057342;28;20721;-81
2023/08/08 04:21:19;;;;;;;0.63;0.60;;;16.80;67.20;15.80;96583.00;;;;5056351;28;20692;-81
2023/08/08 04:23:47;;;;;;;0.47;0.40;;;16.70;67.10;15.80;96589.00;;;;5054253;28;20280;-81
2023/08/08 04:26:14;;;;;;;0.50;0.50;;;16.80;67.30;15.80;96592.00;;;;5048634;28;20289;-81
2023/08/08 04:28:42;;;;;;;0.57;0.57;;;16.80;67.30;15.90;96585.00;;;;5048711;28;20254;-81
2023/08/08 04:31:10;;;;;;;0.57;0.50;;;16.80;67.40;15.90;96582.00;;;;5039397;28;20231;-80
2023/08/08 04:33:39;;;;;;;0.70;0.70;;;16.80;67.50;15.90;96592.00;;;;5022151;28;20197;-80
2023/08/08 04:36:07;;;;;;;1.13;0.33;;;16.80;67.60;15.90;96595.00;;;;5047586;28;20200;-79
2023/08/08 04:38:34;;;;;;;0.40;0.40;;;16.90;67.70;16.00;96596.00;;;;5048058;28;21014;-80
2023/08/08 04:41:01;;;;;;;1.77;0.40;;;16.90;67.70;16.00;96594.00;;;;5042462;28;20211;-80
2023/08/08 04:43:28;;;;;;;0.33;0.33;;;16.90;67.70;16.00;96588.00;;;;5055268;28;20284;-80
2023/08/08 04:45:56;;;;;;;0.60;0.60;;;17.00;67.60;16.10;96589.00;;;;5044696;28;20299;-80
2023/08/08 04:48:23;;;;;;;0.50;0.50;;;17.00;67.60;16.10;96593.00;;;;5054964;28;20288;-80
2023/08/08 04:50:52;;;;;;;0.57;0.40;;;17.10;67.60;16.10;96595.00;;;;5044253;28;20216;-79
2023/08/08 04:53:20;;;;;;;0.50;0.40;;;17.10;67.60;16.20;96598.00;;;;5044655;28;20192;-81
2023/08/08 04:55:48;;;;;;;0.50;0.43;;;17.20;68.30;16.20;96597.00;;;;5048988;28;20311;-80
2023/08/08 04:58:15;;;;;;;0.53;0.50;;;17.20;67.60;16.20;96599.00;;;;5044464;28;20216;-80
2023/08/08 05:00:44;;;;;;;0.70;0.50;;;17.20;67.60;16.30;96592.00;;;;5044910;28;20204;-79
2023/08/08 05:03:11;;;;;;;0.40;0.40;;;17.30;67.60;16.30;96601.00;;;;5038217;28;20280;-80
2023/08/08 05:05:39;;;;;;;0.87;0.60;;;17.30;67.50;16.40;96594.00;;;;5032977;28;20753;-80
2023/08/08 05:08:07;;;;;;;0.60;0.60;;;17.30;67.50;16.40;96584.00;;;;5041693;28;20207;-80
2023/08/08 05:10:35;;;;;;;0.67;0.40;;;17.40;67.70;16.40;96584.00;;;;5055169;28;20209;-80
2023/08/08 05:13:02;;;;;;;0.50;0.50;;;17.40;67.70;16.50;96586.00;;;;5055256;28;20196;-80
2023/08/08 05:15:29;;;;;;;0.60;0.60;;;17.40;67.70;16.50;96583.00;;;;5053638;28;20224;-80
2023/08/08 05:17:57;;;;;;;0.50;0.50;;;17.50;67.60;16.60;96589.00;;;;5054497;28;20291;-80
2023/08/08 05:20:25;;;;;;;1.40;0.50;;;17.50;67.60;16.60;96588.00;;;;5047894;28;20208;-80
2023/08/08 05:22:53;;;;;;;0.30;0.30;;;17.50;67.60;16.60;96585.00;;;;5052514;28;20201;-80
2023/08/08 05:25:22;;;;;;;1.63;0.50;;;17.60;67.60;16.70;96590.00;;;;5046081;28;20315;-80
2023/08/08 05:27:49;;;;;;;0.67;0.50;;;17.60;67.60;16.70;96592.00;;;;5057188;28;20208;-80
2023/08/08 05:30:17;;;;;;;0.40;0.40;;;17.60;67.50;16.80;96594.00;;;;5055699;28;20299;-80
2023/08/08 05:32:44;;;;;;;0.73;0.60;;;17.70;67.40;16.80;96599.00;;;;5057197;28;20204;-80
2023/08/08 05:35:12;;;;;;;0.67;0.50;;;17.70;67.40;16.80;96602.00;;;;5054122;28;20307;-81
2023/08/08 05:37:39;;;;;;;3.37;0.70;;;17.80;67.50;16.90;96606.00;;;;5053745;28;20228;-80
2023/08/08 05:40:10;;;;;;;2.37;0.43;;;17.80;67.30;16.90;96599.00;;;;5054740;28;20312;-79
2023/08/08 05:42:38;;;;;;;0.83;0.50;;;17.80;67.00;17.00;96599.00;;;;5046612;28;20207;-80
2023/08/08 05:45:07;;;;;;;0.80;0.60;;;17.90;67.00;17.00;96604.00;;;;5054161;28;20315;-80
2023/08/08 05:47:35;;;;;;;0.30;0.30;;;17.90;67.10;17.10;96601.00;;;;5053923;28;20283;-80
2023/08/08 05:50:02;;;;;;;2.17;0.67;;;17.90;67.30;17.10;96593.00;;;;5052881;28;20203;-80
2023/08/08 05:52:30;;;;;;;0.40;0.33;;;18.00;67.30;17.20;96598.00;;;;5053391;28;20288;-80
2023/08/08 05:54:59;;;;;;;0.57;0.50;;;18.00;67.10;17.20;96602.00;;;;5036181;28;20220;-80
2023/08/08 05:57:27;;;;;;;0.40;0.40;;;18.00;67.00;17.30;96607.00;;;;5036806;28;20218;-79
2023/08/08 05:59:56;;;;;;;0.70;0.40;;;18.10;67.30;17.30;96595.00;;;;5053659;28;20204;-80
2023/08/08 06:02:23;;;;;;;2.80;0.60;;;18.20;67.20;17.40;96596.00;;;;5036209;28;20204;-81
2023/08/08 06:04:53;;;;;;;0.60;0.60;;;18.20;67.10;17.40;96602.00;;;;5039363;28;20225;-80
2023/08/08 06:07:20;;;;;;;0.83;0.40;;;18.20;66.80;17.50;96597.00;;;;5046098;28;20308;-80
2023/08/08 06:09:48;;;;;;;0.50;0.50;;;18.30;66.60;17.50;96600.00;;;;5050083;28;20205;-80
2023/08/08 06:12:15;;;;;;;1.40;0.63;;;18.30;66.60;17.60;96604.00;;;;5048969;28;20295;-79
2023/08/08 06:14:43;;;;;;;0.67;0.60;;;18.30;66.50;17.60;96607.00;;;;5054020;28;20251;-79
2023/08/08 06:17:11;;;;;;;0.40;0.40;;;18.40;66.70;17.70;96604.00;;;;5036707;28;20264;-80
2023/08/08 06:19:39;;;;;;;0.30;0.30;;;18.50;66.90;17.70;96611.00;;;;5054882;28;20283;-80
2023/08/08 06:22:06;;;;;;;0.50;0.50;;;18.50;66.80;17.80;96605.00;;;;5053512;28;20227;-80
2023/08/08 06:24:33;;;;;;;0.30;0.30;;;18.60;66.60;17.80;96605.00;;;;5053743;28;20271;-79
2023/08/08 06:27:01;;;;;;;0.80;0.80;;;18.60;66.50;17.90;96604.00;;;;5053957;28;20228;-80
2023/08/08 06:29:28;;;;;;;0.47;0.47;;;18.60;66.20;17.90;96605.00;;;;5053825;28;20697;-81
2023/08/08 06:31:55;;;;;;;1.10;0.50;;;18.70;66.20;18.00;96607.00;;;;5053894;28;20197;-80
2023/08/08 06:34:24;;;;;;;1.37;0.50;;;18.70;66.20;18.00;96612.00;;;;5053367;28;20221;-80
2023/08/08 06:36:51;;;;;;;0.50;0.50;;;18.80;66.20;18.00;96602.00;;;;5053998;28;20223;-79
2023/08/08 06:39:21;;;;;;;0.93;0.40;;;18.80;66.20;18.10;96610.00;;;;5020011;28;20196;-80
2023/08/08 06:41:49;;;;;;;2.47;0.50;;;18.80;66.10;18.10;96607.00;;;;5036679;28;20200;-79
2023/08/08 06:44:16;;;;;;;0.47;0.43;;;18.90;66.30;18.20;96608.00;;;;5053120;28;20311;-80
2023/08/08 06:46:44;;;;;;;0.60;0.60;;;18.90;66.00;18.20;96596.00;;;;5040282;28;20227;-80
2023/08/08 06:49:11;;;;;;;0.67;0.50;;;18.90;66.00;18.20;96595.00;;;;5041689;28;20206;-81
2023/08/08 06:51:40;;;;;;;0.53;0.50;;;19.00;66.10;18.30;96596.00;;;;5053045;28;20193;-80
2023/08/08 06:54:07;;;;;;;0.50;0.50;;;19.00;65.90;18.30;96596.00;;;;5038066;28;20263;-82
2023/08/08 06:56:35;;;;;;;0.40;0.40;;;19.00;65.90;18.30;96601.00;;;;5056228;28;20209;-80
2023/08/08 06:59:02;;;;;;;1.80;0.60;;;19.10;66.10;18.40;96595.00;;;;5059258;28;20292;-81
2023/08/08 07:01:30;;;;;;;0.40;0.40;;;19.10;66.10;18.40;96596.00;;;;5070057;28;20197;-81
2023/08/08 07:03:57;;;;;;;0.67;0.63;;;19.10;65.90;18.40;96592.00;;;;5068349;28;20592;-81
2023/08/08 07:06:24;;;;;;;0.73;0.50;;;19.20;65.80;18.50;96590.00;;;;5047780;28;20220;-80
2023/08/08 07:08:53;;;;;;;0.60;0.60;;;19.20;65.80;18.60;96591.00;;;;5068396;28;20192;-80
2023/08/08 07:11:22;;;;;;;0.50;0.50;;;19.20;65.90;18.60;96586.00;;;;5068444;28;20761;-79
2023/08/08 07:13:50;;;;;;;1.43;0.47;;;19.30;65.90;18.70;96591.00;;;;5032531;28;20680;-80
2023/08/08 07:16:18;;;;;;;0.60;0.40;;;19.40;66.20;18.80;96597.00;;;;5061475;28;20227;-81
2023/08/08 07:18:45;;;;;;;1.20;0.50;;;19.40;65.90;18.90;96593.00;;;;5056514;28;20200;-81
2023/08/08 07:21:12;;;;;;;1.50;0.50;;;19.50;65.80;19.00;96592.00;;;;5051154;28;20596;-79
2023/08/08 07:23:39;;;;;;;1.20;0.70;;;19.60;66.30;19.10;96603.00;;;;5048443;28;20224;-80
2023/08/08 07:26:08;;;;;;;0.63;0.50;;;19.70;66.20;19.20;96595.00;;;;5047618;28;20303;-79
2023/08/08 07:28:35;;;;;;;0.53;0.40;;;19.70;65.50;19.30;96587.00;;;;5051296;28;20571;-80
2023/08/08 07:31:03;;;;;;;0.80;0.80;;;19.80;65.00;19.40;96592.00;;;;5044163;28;20281;-79
2023/08/08 07:33:31;;;;;;;0.50;0.50;;;20.00;65.30;19.50;96594.00;;;;5017488;28;20202;-79
2023/08/08 07:35:58;;;;;;;0.63;0.50;;;20.10;65.20;19.60;96586.00;;;;5050817;28;20254;-80
2023/08/08 07:38:26;;;;;;;0.77;0.60;;;20.20;65.30;19.80;96589.00;;;;5051310;28;20225;-81
2023/08/08 07:40:53;;;;;;;0.87;0.50;;;20.30;64.90;19.90;96583.00;;;;5048815;28;20232;-78
2023/08/08 07:43:22;;;;;;;0.40;0.40;;;20.40;65.10;20.10;96580.00;;;;5054990;28;20197;-82
2023/08/08 07:45:49;;;;;;;0.50;0.43;;;20.50;63.90;20.20;96574.00;;;;5056986;28;20255;-81
2023/08/08 07:48:16;;;;;;;0.47;0.40;;;20.70;64.10;20.30;96575.00;;;;5055348;28;20203;-80
2023/08/08 07:50:44;;;;;;;0.73;0.50;;;20.80;63.80;20.50;96577.00;;;;5058202;28;20206;-81
2023/08/08 07:53:11;;;;;;;0.50;0.50;;;20.90;63.10;20.60;96572.00;;;;5058431;28;20197;-80
2023/08/08 07:55:38;;;;;;;0.50;0.50;;;21.10;63.10;20.80;96576.00;;;;5057350;28;20223;-81
2023/08/08 07:58:06;;;;;;;0.47;0.47;;;21.20;62.80;20.90;96577.00;;;;5056838;28;20626;-80
2023/08/08 08:00:35;;;;;;;0.40;0.40;;;21.30;62.50;21.00;96579.00;;;;5042251;28;20283;-81
2023/08/08 08:03:02;;;;;;;0.40;0.40;;;21.50;61.90;21.10;96575.00;;;;5040438;28;20209;-81
2023/08/08 08:05:30;;;;;;;0.50;0.50;;;21.60;62.00;21.30;96572.00;;;;5061128;28;20221;-82
2023/08/08 08:07:58;;;;;;;0.40;0.40;;;21.70;61.40;21.40;96575.00;;;;5064069;28;20328;-82
2023/08/08 08:10:25;;;;;;;1.33;0.70;;;21.90;61.10;21.60;96569.00;;;;5061183;28;20236;-82
2023/08/08 08:12:57;;;;;;;1.63;0.60;;;22.00;60.60;21.70;96569.00;;;;5048133;28;20204;-81
2023/08/08 08:15:25;;;;;;;0.50;0.27;;;22.20;60.30;21.90;96570.00;;;;5044921;28;20228;-80
2023/08/08 08:17:54;;;;;;;1.70;0.53;;;22.30;59.90;22.10;96568.00;;;;5020880;28;20193;-79
2023/08/08 08:20:21;;;;;;;0.80;0.53;;;22.40;59.70;22.20;96568.00;;;;5053025;28;20199;-78
2023/08/08 08:22:49;;;;;;;0.60;0.40;;;22.60;59.40;22.40;96560.00;;;;5054628;28;20611;-79
2023/08/08 08:25:18;;;;;;;0.40;0.40;;;22.70;59.20;22.50;96572.00;;;;5052952;28;20657;-78
2023/08/08 08:27:45;;;;;;;0.53;0.50;;;22.90;59.00;22.60;96562.00;;;;5032828;28;20240;-78
2023/08/08 08:30:14;;;;;;;0.60;0.60;;;23.00;58.70;22.70;96564.00;;;;5041756;28;20208;-79
2023/08/08 08:32:42;;;;;;;0.50;0.47;;;23.10;58.30;22.80;96555.00;;;;5050395;28;20569;-79
2023/08/08 08:35:13;;;;;;;0.67;0.40;;;23.30;58.40;23.00;96569.00;;;;5044222;28;20219;-79
2023/08/08 08:37:40;;;;;;;0.57;0.50;;;23.40;58.30;23.10;96557.00;;;;5042499;28;20204;-78
2023/08/08 08:40:09;;;;;;;0.43;0.43;;;23.40;57.60;23.20;96558.00;;;;5036893;28;20283;-78
2023/08/08 08:42:37;;;;;;;4.40;0.60;;;23.50;57.70;23.30;96555.00;;;;5032332;28;20199;-78
2023/08/08 08:45:07;;;;;;;0.40;0.37;;;23.70;57.30;23.40;96562.00;;;;5038980;28;20706;-78
2023/08/08 08:47:37;;;;;;;0.40;0.40;;;23.70;57.20;23.50;96550.00;;;;5036225;28;20710;-80
2023/08/08 08:50:05;;;;;;;0.60;0.30;;;23.90;57.10;23.50;96550.00;;;;5046763;28;20212;-79
2023/08/08 08:52:35;;;;;;;0.40;0.40;;;23.90;56.60;23.60;96554.00;;;;5051937;28;20670;-79
2023/08/08 08:55:03;;;;;;;0.97;0.60;;;24.00;56.20;23.60;96552.00;;;;5052807;28;20228;-79
2023/08/08 08:57:32;;;;;;;1.80;0.60;;;24.10;56.10;23.70;96555.00;;;;5050250;28;20215;-79
2023/08/08 09:00:00;;;;;;;0.50;0.50;;;24.10;55.90;23.70;96552.00;;;;5046870;28;20205;-79
2023/08/08 09:02:27;;;;;;;0.90;0.53;;;24.20;55.90;23.80;96543.00;;;;5051095;28;20287;-78
2023/08/08 09:04:55;;;;;;;0.90;0.40;;;24.20;55.70;23.90;96547.00;;;;5052995;28;20228;-80
2023/08/08 09:07:27;;;;;;;0.47;0.43;;;24.30;55.10;24.00;96543.00;;;;5054611;28;20587;-82
2023/08/08 09:09:56;;;;;;;0.98;0.50;;;24.40;55.00;24.20;96548.00;;;;5054124;28;20922;-82
2023/08/08 09:12:24;;;;;;;0.40;0.30;;;24.30;52.40;24.30;96536.00;;;;5053499;28;20641;-82
2023/08/08 09:14:57;;;;;;;0.67;0.40;;;24.40;53.90;24.30;96536.00;;;;5054881;28;20212;-81
2023/08/08 09:17:27;;;;;;;0.40;0.37;;;24.60;54.40;24.40;96540.00;;;;5037200;28;20205;-80
2023/08/08 09:19:58;;;;;;;0.53;0.50;;;24.70;54.20;24.50;96546.00;;;;5035326;28;20671;-83
2023/08/08 09:22:26;;;;;;;0.50;0.50;;;24.80;53.70;24.60;96534.00;;;;5040364;28;20200;-81
2023/08/08 09:24:56;;;;;;;0.60;0.60;;;24.90;53.80;24.70;96542.00;;;;5054728;28;20244;-82
2023/08/08 09:27:23;;;;;;;0.57;0.57;;;25.00;53.50;24.80;96542.00;;;;5036275;28;20583;-80
2023/08/08 09:29:51;;;;;;;1.43;0.50;;;25.10;53.60;24.90;96538.00;;;;5047299;28;20188;-82
2023/08/08 09:32:19;;;;;;;0.50;0.50;;;25.20;53.40;25.00;96551.00;;;;5055199;28;20204;-84
2023/08/08 09:34:47;;;;;;;1.30;0.50;;;25.30;53.10;25.00;96543.00;;;;5041458;28;20217;-83
2023/08/08 09:37:15;;;;;;;0.50;0.50;;;25.40;52.80;25.10;96544.00;;;;5039473;28;20666;-83
2023/08/08 09:39:43;;;;;;;0.93;0.40;;;25.50;52.50;25.10;96529.00;;;;5053920;28;20231;-83
2023/08/08 09:42:12;;;;;;;1.43;0.50;;;25.50;52.50;25.10;96536.00;;;;5045624;28;20197;-83
2023/08/08 09:44:39;;;;;;;1.53;0.50;;;25.60;52.20;25.20;96537.00;;;;5055846;28;20256;-82
2023/08/08 09:47:07;;;;;;;2.33;0.70;;;25.60;52.30;25.20;96519.00;;;;5055891;28;20224;-83
2023/08/08 09:49:36;;;;;;;0.50;0.50;;;25.60;52.40;25.20;96519.00;;;;5054938;28;20197;-83
2023/08/08 09:52:05;;;;;;;0.40;0.40;;;25.70;52.80;25.30;96523.00;;;;5055376;28;20686;-83
2023/08/08 09:54:34;;;;;;;0.67;0.40;;;25.70;52.40;25.30;96526.00;;;;5056511;28;20243;-83
2023/08/08 09:57:02;;;;;;;0.97;0.73;;;25.80;52.50;25.40;96521.00;;;;5056083;28;20204;-83
2023/08/08 09:59:32;;;;;;;0.40;0.40;;;25.80;52.30;25.40;96522.00;;;;5034872;28;20239;-82
2023/08/08 10:02:01;;;;;;;0.37;0.37;;;25.80;51.60;25.40;96528.00;;;;5049905;28;20697;-83
2023/08/08 10:04:28;;;;;;;0.30;0.30;;;25.80;51.30;25.30;96522.00;;;;5039716;28;20654;-82
2023/08/08 10:06:56;;;;;;;0.50;0.50;;;25.80;51.00;25.30;96529.00;;;;5057238;28;20217;-83
2023/08/08 10:09:24;;;;;;;0.40;0.40;;;25.80;50.90;25.30;96526.00;;;;5056563;28;20201;-83
2023/08/08 10:11:52;;;;;;;0.47;0.47;;;25.80;51.00;25.30;96519.00;;;;5025113;28;20258;-83
2023/08/08 10:14:20;;;;;;;0.40;0.40;;;25.80;51.00;25.30;96526.00;;;;5049182;28;20651;-83
2023/08/08 10:16:49;;;;;;;0.63;0.50;;;25.80;51.00;25.30;96529.00;;;;5056871;28;20196;-81
2023/08/08 10:19:26;;;;;;;0.60;0.50;;;25.80;51.30;25.30;96520.00;;;;5058024;28;20211;-83
2023/08/08 10:22:02;;;;;;;0.40;0.40;;;25.80;50.30;25.30;96518.00;;;;5053641;28;20255;-83
2023/08/08 10:24:36;;;;;;;0.80;0.60;;;25.80;50.60;25.30;96523.00;;;;5056861;28;20224;-82
2023/08/08 10:27:05;;;;;;;0.60;0.60;;;25.80;50.30;25.40;96522.00;;;;5056629;28;20462;-82
2023/08/08 10:29:34;;;;;;;0.63;0.63;;;25.80;50.50;25.40;96512.00;;;;5057541;28;20228;-83
2023/08/08 10:32:07;;;;;;;0.53;0.40;;;25.80;50.00;25.40;96517.00;;;;5052254;28;20208;-84
2023/08/08 10:34:42;;;;;;;0.60;0.50;;;25.90;50.20;25.40;96517.00;;;;5041491;28;20232;-83
2023/08/08 10:37:12;;;;;;;0.63;0.50;;;25.90;49.20;25.50;96522.00;;;;5049987;28;20208;-83
2023/08/08 10:39:53;;;;;;;0.50;0.40;;;26.00;50.10;25.50;96526.00;;;;5055262;28;20192;-81
2023/08/08 10:42:24;;;;;;;0.50;0.50;;;26.00;49.00;25.50;96532.00;;;;5063224;28;20235;-82
2023/08/08 10:44:53;;;;;;;1.00;0.50;;;26.00;48.90;25.60;96516.00;;;;5063650;28;20209;-82
2023/08/08 10:47:25;;;;;;;1.80;0.50;;;26.00;48.90;25.60;96515.00;;;;5057792;28;20614;-83
2023/08/08 10:50:06;;;;;;;1.50;0.77;;;26.00;48.80;25.60;96505.00;;;;5054432;28;20267;-81
2023/08/08 10:52:35;;;;;;;0.50;0.50;;;26.10;48.20;25.60;96503.00;;;;5053451;28;20205;-82
2023/08/08 10:55:03;;;;;;;1.10;0.60;;;26.10;49.00;25.70;96513.00;;;;5053630;28;20315;-82
2023/08/08 10:57:32;;;;;;;0.57;0.50;;;26.10;49.00;25.70;96508.00;;;;5053861;28;20548;-82
2023/08/08 11:00:18;;;;;;;0.87;0.70;;;26.10;48.90;25.70;96507.00;;;;5054404;28;20338;-83